Time;durP1;ratioP1;P1;durP2;ratioP2;P2;SDS_P1;SDS_P2;PMS_P1;PMS_P2;Temp;Humidity;BMP_temperature;BMP_pressure;BME280_temperature;BME280_humidity;BME280_pressure;Samples;Min_cycle;Max_cycle;Signal;HPM_P1;HPM_P2
2023/06/26 00:01:31;;;;;;;10.60;9.60;;;18.30;78.20;;;;;;5031405;28;20563;-68
2023/06/26 00:04:01;;;;;;;10.53;9.07;;;18.20;78.20;;;;;;5030304;28;20484;-67
2023/06/26 00:06:29;;;;;;;10.20;9.30;;;18.20;79.90;;;;;;5031462;28;20920;-67
2023/06/26 00:08:58;;;;;;;10.90;9.90;;;18.10;79.80;;;;;;5031114;28;20540;-68
2023/06/26 00:11:27;;;;;;;9.90;9.00;;;18.00;79.10;;;;;;5031431;28;20587;-68
2023/06/26 00:13:55;;;;;;;8.90;8.00;;;18.00;79.40;;;;;;5029840;28;20576;-69
2023/06/26 00:16:23;;;;;;;9.93;8.93;;;18.00;81.60;;;;;;5031363;28;20437;-69
2023/06/26 00:18:51;;;;;;;11.07;9.40;;;18.00;79.30;;;;;;5031183;28;20441;-67
2023/06/26 00:21:19;;;;;;;10.23;9.23;;;18.10;78.70;;;;;;5031354;28;20846;-68
2023/06/26 00:23:47;;;;;;;10.30;9.30;;;18.00;80.20;;;;;;5030018;28;20495;-68
2023/06/26 00:26:17;;;;;;;11.13;9.53;;;18.00;79.60;;;;;;5031068;28;20471;-67
2023/06/26 00:28:45;;;;;;;10.27;9.33;;;17.90;81.30;;;;;;5030773;28;20477;-67
2023/06/26 00:31:13;;;;;;;9.70;8.60;;;17.90;80.20;;;;;;5030672;28;20531;-67
2023/06/26 00:33:41;;;;;;;10.73;9.60;;;18.00;82.80;;;;;;5029408;28;20522;-67
2023/06/26 00:36:09;;;;;;;10.07;9.07;;;18.00;83.20;;;;;;5030503;28;20472;-67
2023/06/26 00:38:37;;;;;;;11.73;9.93;;;17.90;83.80;;;;;;5030700;28;20444;-67
2023/06/26 00:41:12;;;;;;;11.00;10.00;;;17.80;81.30;;;;;;5030393;28;20464;-67
2023/06/26 00:43:41;;;;;;;11.10;10.00;;;17.70;80.40;;;;;;5029229;28;20457;-67
2023/06/26 00:46:11;;;;;;;11.10;9.27;;;17.70;81.50;;;;;;5030684;28;20445;-67
2023/06/26 00:48:43;;;;;;;11.33;10.17;;;17.80;79.80;;;;;;5030681;28;20480;-67
2023/06/26 00:51:18;;;;;;;10.90;9.80;;;17.90;79.80;;;;;;5030495;28;20532;-67
2023/06/26 00:53:48;;;;;;;10.10;9.10;;;17.90;80.50;;;;;;5028762;28;20496;-68
2023/06/26 00:56:18;;;;;;;10.70;9.60;;;17.80;80.10;;;;;;5029680;28;20482;-67
2023/06/26 00:58:48;;;;;;;10.40;8.90;;;17.80;86.30;;;;;;5030122;28;20451;-68
2023/06/26 01:01:17;;;;;;;10.13;9.13;;;17.70;81.70;;;;;;5030583;28;20508;-68
2023/06/26 01:03:46;;;;;;;11.30;10.20;;;17.60;83.50;;;;;;5028888;28;20493;-68
2023/06/26 01:06:15;;;;;;;10.10;9.10;;;17.70;82.50;;;;;;5030342;28;20547;-68
2023/06/26 01:08:45;;;;;;;8.90;8.10;;;17.60;82.00;;;;;;5032167;28;20472;-68
2023/06/26 01:11:14;;;;;;;11.70;9.60;;;17.60;81.70;;;;;;5030392;28;20449;-68
2023/06/26 01:13:43;;;;;;;9.40;8.50;;;17.60;82.10;;;;;;5029034;28;20551;-67
2023/06/26 01:16:13;;;;;;;10.50;9.40;;;17.40;86.10;;;;;;5030127;28;20471;-67
2023/06/26 01:18:42;;;;;;;10.10;9.10;;;17.30;85.10;;;;;;5030080;28;20437;-67
2023/06/26 01:21:12;;;;;;;9.00;8.20;;;17.30;84.00;;;;;;5029752;28;20524;-67
2023/06/26 01:23:50;;;;;;;10.70;9.60;;;17.30;85.10;;;;;;5028971;28;20881;-68
2023/06/26 01:26:21;;;;;;;11.03;9.93;;;17.20;85.60;;;;;;5029924;28;20461;-68
2023/06/26 01:28:54;;;;;;;9.20;8.30;;;17.10;86.00;;;;;;5030287;28;20491;-67
2023/06/26 01:31:24;;;;;;;9.73;8.83;;;17.20;84.60;;;;;;5030294;28;20437;-67
2023/06/26 01:33:52;;;;;;;10.30;9.30;;;17.20;84.50;;;;;;5029406;28;20875;-67
2023/06/26 01:36:20;;;;;;;10.70;9.60;;;17.20;87.10;;;;;;5029943;28;21035;-67
2023/06/26 01:38:48;;;;;;;10.80;9.70;;;17.10;86.60;;;;;;5029719;28;20444;-67
2023/06/26 01:41:16;;;;;;;9.73;8.73;;;17.00;88.90;;;;;;5029859;28;20989;-68
2023/06/26 01:44:10;;;;;;;10.43;9.43;;;17.00;90.10;;;;;;5028297;28;20495;-67
2023/06/26 01:46:46;;;;;;;9.70;8.70;;;17.00;90.40;;;;;;4994998;28;20640;-68
2023/06/26 01:49:21;;;;;;;11.47;10.43;;;16.90;88.60;;;;;;5029265;28;20905;-67
2023/06/26 01:51:56;;;;;;;13.77;10.40;;;16.80;88.70;;;;;;5029523;28;20472;-67
2023/06/26 01:54:26;;;;;;;10.07;8.80;;;16.70;88.80;;;;;;5028056;28;20488;-67
2023/06/26 01:56:55;;;;;;;11.37;10.27;;;16.70;90.60;;;;;;5029787;28;20441;-67
2023/06/26 01:59:28;;;;;;;10.50;9.50;;;16.70;91.10;;;;;;5029467;28;20439;-68
2023/06/26 02:01:56;;;;;;;10.50;9.50;;;16.80;91.50;;;;;;5028986;28;20436;-67
2023/06/26 02:04:24;;;;;;;10.43;9.43;;;16.80;92.10;;;;;;5027950;28;20444;-68
2023/06/26 02:06:52;;;;;;;10.03;9.13;;;16.70;90.60;;;;;;5029282;28;20445;-67
2023/06/26 02:09:21;;;;;;;10.10;9.20;;;16.60;90.10;;;;;;5032662;28;20558;-67
2023/06/26 02:11:49;;;;;;;10.20;9.20;;;16.60;90.10;;;;;;5033176;28;20528;-67
2023/06/26 02:14:17;;;;;;;9.73;8.90;;;16.60;90.70;;;;;;5032251;28;20794;-68
2023/06/26 02:16:48;;;;;;;10.20;9.20;;;16.60;91.70;;;;;;5033099;28;20444;-67
2023/06/26 02:19:21;;;;;;;9.93;8.97;;;16.60;91.90;;;;;;5032885;28;20495;-67
2023/06/26 02:21:49;;;;;;;10.17;9.17;;;16.70;90.90;;;;;;5033206;28;20499;-67
2023/06/26 02:24:17;;;;;;;11.67;10.57;;;16.60;91.90;;;;;;5032081;28;20530;-67
2023/06/26 02:26:46;;;;;;;10.93;9.57;;;16.50;91.90;;;;;;5033627;28;20445;-68
2023/06/26 02:29:14;;;;;;;9.83;8.83;;;16.40;93.00;;;;;;5044423;28;20890;-68
2023/06/26 02:31:42;;;;;;;10.70;9.70;;;16.50;91.50;;;;;;5053468;28;21015;-68
2023/06/26 02:34:12;;;;;;;9.90;8.90;;;16.40;91.90;;;;;;5050077;28;20464;-68
2023/06/26 02:36:40;;;;;;;11.27;10.17;;;16.40;93.10;;;;;;5033936;28;20451;-68
2023/06/26 02:39:08;;;;;;;11.10;10.00;;;16.40;92.20;;;;;;5033776;28;20464;-67
2023/06/26 02:41:36;;;;;;;10.80;9.80;;;16.40;93.40;;;;;;5033623;28;20543;-67
2023/06/26 02:44:04;;;;;;;11.67;9.80;;;16.30;94.60;;;;;;5032246;28;20464;-68
2023/06/26 02:46:33;;;;;;;10.20;8.63;;;16.30;94.60;;;;;;5033441;28;20865;-68
2023/06/26 02:49:01;;;;;;;10.90;9.80;;;16.30;93.40;;;;;;5033211;28;20490;-67
2023/06/26 02:51:30;;;;;;;12.37;10.13;;;16.20;93.40;;;;;;5032939;28;20529;-68
2023/06/26 02:53:58;;;;;;;10.70;9.60;;;16.20;93.40;;;;;;5031710;28;20476;-68
2023/06/26 02:56:28;;;;;;;10.53;9.50;;;16.10;94.00;;;;;;5032717;28;20453;-67
2023/06/26 02:58:57;;;;;;;11.33;10.00;;;16.20;95.50;;;;;;5032516;28;21072;-67
2023/06/26 03:01:25;;;;;;;10.53;9.53;;;16.20;95.00;;;;;;5032549;28;20480;-68
2023/06/26 03:03:53;;;;;;;10.77;9.77;;;16.30;95.50;;;;;;5031159;28;20836;-67
2023/06/26 03:06:21;;;;;;;10.07;9.07;;;16.30;94.80;;;;;;5032325;28;20849;-68
2023/06/26 03:08:50;;;;;;;10.73;9.57;;;16.20;94.70;;;;;;5032199;28;20476;-68
2023/06/26 03:11:18;;;;;;;11.17;9.97;;;16.10;95.20;;;;;;5032318;28;21044;-68
2023/06/26 03:13:47;;;;;;;10.60;9.60;;;16.10;94.70;;;;;;5030886;28;20466;-67
2023/06/26 03:16:15;;;;;;;10.83;9.70;;;16.10;95.50;;;;;;5032394;28;20532;-67
2023/06/26 03:18:43;;;;;;;11.57;10.43;;;16.10;94.70;;;;;;5031997;28;20476;-68
2023/06/26 03:21:11;;;;;;;11.17;10.17;;;16.00;94.90;;;;;;5032348;28;20464;-67
2023/06/26 03:23:40;;;;;;;10.90;9.80;;;16.00;95.00;;;;;;5030909;28;20469;-68
2023/06/26 03:26:09;;;;;;;11.70;10.50;;;16.10;96.00;;;;;;5032158;28;21021;-67
2023/06/26 03:28:37;;;;;;;12.37;9.80;;;16.00;94.90;;;;;;5049052;28;20518;-68
2023/06/26 03:31:05;;;;;;;10.83;9.73;;;16.00;96.40;;;;;;5052023;28;20474;-68
2023/06/26 03:33:33;;;;;;;11.33;10.23;;;16.00;95.20;;;;;;5050688;28;20456;-67
2023/06/26 03:36:01;;;;;;;10.87;9.77;;;16.00;95.40;;;;;;5052123;28;20444;-68
2023/06/26 03:38:29;;;;;;;9.97;9.07;;;16.00;95.60;;;;;;5051737;28;20982;-68
2023/06/26 03:40:57;;;;;;;10.90;9.80;;;16.00;95.70;;;;;;5051651;28;20436;-67
2023/06/26 03:43:27;;;;;;;10.77;9.70;;;16.10;95.50;;;;;;5050663;28;20896;-68
2023/06/26 03:45:55;;;;;;;10.90;9.73;;;16.00;95.40;;;;;;5051679;28;20443;-68
2023/06/26 03:48:23;;;;;;;11.37;10.17;;;16.00;95.50;;;;;;5051890;28;20851;-68
2023/06/26 03:50:51;;;;;;;11.13;10.07;;;16.10;95.20;;;;;;5051471;28;20472;-67
2023/06/26 03:53:19;;;;;;;12.30;11.10;;;16.20;95.30;;;;;;5050498;28;20537;-67
2023/06/26 03:55:47;;;;;;;10.97;9.90;;;16.20;94.90;;;;;;5051980;28;20479;-67
2023/06/26 03:58:15;;;;;;;10.87;9.77;;;16.20;94.80;;;;;;5051631;28;20511;-67
2023/06/26 04:00:47;;;;;;;12.00;10.53;;;16.20;95.10;;;;;;5051377;28;20447;-67
2023/06/26 04:03:15;;;;;;;12.00;9.90;;;16.20;94.70;;;;;;5049952;28;21180;-67
2023/06/26 04:05:43;;;;;;;11.30;10.20;;;16.20;94.90;;;;;;5051383;28;20447;-67
2023/06/26 04:08:11;;;;;;;10.47;9.10;;;16.30;95.60;;;;;;5051094;28;20441;-67
2023/06/26 04:10:39;;;;;;;11.00;10.00;;;16.30;94.70;;;;;;5050959;28;21015;-67
2023/06/26 04:13:07;;;;;;;10.90;9.80;;;16.30;94.60;;;;;;5049497;28;20510;-67
2023/06/26 04:15:35;;;;;;;9.73;8.80;;;16.40;95.10;;;;;;5051123;28;20443;-67
2023/06/26 04:18:05;;;;;;;10.70;9.63;;;16.50;95.20;;;;;;5051192;28;20440;-67
2023/06/26 04:20:34;;;;;;;10.30;9.30;;;16.50;94.90;;;;;;5051137;28;20443;-68
2023/06/26 04:23:03;;;;;;;11.80;10.07;;;16.50;93.90;;;;;;5049612;28;20834;-70
2023/06/26 04:25:31;;;;;;;10.87;9.77;;;16.50;93.80;;;;;;5050493;28;20448;-67
2023/06/26 04:27:59;;;;;;;11.17;9.90;;;16.60;93.80;;;;;;5050704;28;21050;-69
2023/06/26 04:30:27;;;;;;;13.00;9.43;;;16.60;93.80;;;;;;5049662;28;20507;-68
2023/06/26 04:32:58;;;;;;;10.80;9.70;;;16.70;94.00;;;;;;5049252;28;20639;-68
2023/06/26 04:35:28;;;;;;;11.53;10.03;;;16.70;94.20;;;;;;5050382;28;20547;-68
2023/06/26 04:37:56;;;;;;;11.30;10.23;;;16.80;94.50;;;;;;5050526;28;20444;-68
2023/06/26 04:40:24;;;;;;;11.23;10.23;;;16.90;95.00;;;;;;5050385;28;20500;-67
2023/06/26 04:42:52;;;;;;;11.07;9.90;;;17.00;94.20;;;;;;5048920;28;20567;-67
2023/06/26 04:45:20;;;;;;;11.80;10.50;;;17.10;94.20;;;;;;5050260;28;20639;-72
2023/06/26 04:47:48;;;;;;;11.30;10.17;;;17.10;94.70;;;;;;5050749;28;21011;-70
2023/06/26 04:50:18;;;;;;;12.60;10.57;;;17.20;94.60;;;;;;5050735;28;20522;-67
2023/06/26 04:52:47;;;;;;;12.00;10.70;;;17.30;94.70;;;;;;5048458;28;20482;-68
2023/06/26 04:55:15;;;;;;;12.17;10.97;;;17.40;94.40;;;;;;5049224;28;20470;-69
2023/06/26 04:57:43;;;;;;;12.77;11.33;;;17.50;94.60;;;;;;5048812;28;20476;-69
2023/06/26 05:00:13;;;;;;;12.90;10.47;;;17.50;94.10;;;;;;5048982;28;20953;-71
2023/06/26 05:02:41;;;;;;;12.63;10.30;;;17.60;94.40;;;;;;5047885;28;20452;-64
2023/06/26 05:05:10;;;;;;;11.77;9.80;;;17.60;94.40;;;;;;5048844;28;20452;-67
2023/06/26 05:07:42;;;;;;;9.70;8.80;;;17.70;94.60;;;;;;5049366;28;20745;-67
2023/06/26 05:10:11;;;;;;;10.83;9.83;;;17.80;94.60;;;;;;5048812;28;20823;-67
2023/06/26 05:12:39;;;;;;;11.57;9.97;;;17.90;94.30;;;;;;5047991;28;20808;-65
2023/06/26 05:15:08;;;;;;;12.07;10.87;;;18.00;94.40;;;;;;5048911;28;20444;-66
2023/06/26 05:17:36;;;;;;;11.93;10.73;;;18.10;94.70;;;;;;5048741;28;20432;-67
2023/06/26 05:20:05;;;;;;;12.13;10.23;;;18.20;94.10;;;;;;5048767;28;20436;-66
2023/06/26 05:22:35;;;;;;;11.10;10.10;;;18.20;93.80;;;;;;5046892;28;21005;-67
2023/06/26 05:25:04;;;;;;;13.70;11.90;;;18.40;93.80;;;;;;5048804;28;20442;-67
2023/06/26 05:27:34;;;;;;;11.67;10.57;;;18.50;93.50;;;;;;5048884;28;20452;-67
2023/06/26 05:30:03;;;;;;;10.60;9.50;;;18.60;93.80;;;;;;5038857;28;20498;-68
2023/06/26 05:32:35;;;;;;;12.07;10.93;;;18.70;93.30;;;;;;5027378;28;20461;-69
2023/06/26 05:35:04;;;;;;;12.60;11.30;;;18.90;92.40;;;;;;5028765;28;20437;-67
2023/06/26 05:37:33;;;;;;;11.90;10.67;;;19.20;92.10;;;;;;5028597;28;20441;-67
2023/06/26 05:40:03;;;;;;;12.90;11.57;;;19.20;91.90;;;;;;5028572;28;20457;-68
2023/06/26 05:42:33;;;;;;;10.97;9.87;;;19.50;91.30;;;;;;5026256;28;20548;-67
2023/06/26 05:45:01;;;;;;;14.23;10.50;;;19.70;90.70;;;;;;5028511;28;20484;-67
2023/06/26 05:47:29;;;;;;;11.80;10.47;;;19.70;90.30;;;;;;5028239;28;20445;-68
2023/06/26 05:49:58;;;;;;;11.53;10.10;;;19.80;90.20;;;;;;5028324;28;20480;-67
2023/06/26 05:52:27;;;;;;;11.07;9.43;;;20.00;88.60;;;;;;5027440;28;20457;-67
2023/06/26 05:54:58;;;;;;;12.77;10.20;;;20.00;89.00;;;;;;4990778;28;1092445;-66
2023/06/26 05:57:27;;;;;;;10.93;9.77;;;20.20;88.80;;;;;;5029071;28;20259;-70
2023/06/26 05:59:57;;;;;;;11.93;9.57;;;20.30;88.00;;;;;;5029066;28;20508;-69
2023/06/26 06:02:25;;;;;;;16.93;10.23;;;20.40;88.90;;;;;;5028055;28;20889;-71
2023/06/26 06:04:53;;;;;;;10.47;9.40;;;20.50;88.20;;;;;;5029007;28;20448;-69
2023/06/26 06:07:21;;;;;;;11.13;10.03;;;20.50;88.10;;;;;;5026332;28;20448;-66
2023/06/26 06:09:50;;;;;;;10.23;9.23;;;20.70;89.20;;;;;;5040868;28;20873;-67
2023/06/26 06:12:18;;;;;;;16.00;10.80;;;20.70;88.70;;;;;;5036445;28;20468;-69
2023/06/26 06:14:46;;;;;;;10.77;9.67;;;20.90;87.40;;;;;;5026511;28;20453;-68
2023/06/26 06:17:15;;;;;;;12.13;10.63;;;21.00;88.80;;;;;;5027216;28;20886;-67
2023/06/26 06:19:43;;;;;;;11.80;10.70;;;21.10;86.50;;;;;;5026742;28;20441;-67
2023/06/26 06:22:11;;;;;;;12.30;11.00;;;21.30;83.50;;;;;;5029502;28;20452;-69
2023/06/26 06:24:39;;;;;;;11.43;10.27;;;21.50;82.40;;;;;;5038500;28;21011;-68
2023/06/26 06:27:07;;;;;;;10.53;9.60;;;21.60;81.90;;;;;;5037461;28;20966;-69
2023/06/26 06:29:35;;;;;;;12.67;10.27;;;21.70;81.30;;;;;;5035755;28;20513;-69
2023/06/26 06:32:04;;;;;;;10.97;9.87;;;21.80;81.10;;;;;;5028444;28;20485;-68
2023/06/26 06:34:33;;;;;;;10.03;9.03;;;22.00;79.40;;;;;;5031974;28;20447;-68
2023/06/26 06:37:01;;;;;;;11.27;10.17;;;22.10;79.80;;;;;;5037328;28;20445;-67
2023/06/26 06:39:29;;;;;;;10.50;9.50;;;22.20;77.50;;;;;;5040394;28;20468;-69
2023/06/26 06:41:57;;;;;;;10.20;9.30;;;22.40;78.10;;;;;;5029879;28;20810;-68
2023/06/26 06:44:25;;;;;;;10.90;9.80;;;22.40;78.90;;;;;;5040866;28;20433;-78
2023/06/26 06:46:53;;;;;;;10.43;9.47;;;22.60;76.80;;;;;;5035644;28;20954;-68
2023/06/26 06:49:21;;;;;;;10.70;9.80;;;22.80;75.20;;;;;;5034088;28;20472;-69
2023/06/26 06:51:51;;;;;;;10.43;9.47;;;23.00;74.50;;;;;;5043209;28;20483;-69
2023/06/26 06:54:19;;;;;;;10.43;9.43;;;23.20;73.60;;;;;;5028404;28;20518;-69
2023/06/26 06:56:47;;;;;;;10.97;9.93;;;23.30;74.60;;;;;;5032227;28;20437;-70
2023/06/26 06:59:15;;;;;;;10.30;9.40;;;23.40;72.00;;;;;;5032153;28;20527;-70
2023/06/26 07:01:43;;;;;;;10.83;9.83;;;23.60;73.30;;;;;;5032046;28;20445;-70
2023/06/26 07:04:11;;;;;;;10.93;9.93;;;23.60;72.10;;;;;;5030667;28;20463;-70
2023/06/26 07:06:39;;;;;;;10.30;9.30;;;23.70;71.40;;;;;;5031631;28;20441;-69
2023/06/26 07:09:09;;;;;;;10.43;9.40;;;23.80;70.50;;;;;;5032105;28;21006;-69
2023/06/26 07:11:37;;;;;;;11.57;10.47;;;24.00;68.90;;;;;;5032080;28;20530;-69
2023/06/26 07:14:05;;;;;;;10.17;9.27;;;24.10;69.10;;;;;;5030873;28;20530;-69
2023/06/26 07:16:33;;;;;;;10.00;9.20;;;24.40;67.10;;;;;;5032072;28;20452;-69
2023/06/26 07:19:01;;;;;;;10.30;9.30;;;24.60;65.70;;;;;;5032068;28;20480;-68
2023/06/26 07:21:29;;;;;;;10.70;9.70;;;24.80;64.40;;;;;;5032112;28;20519;-68
2023/06/26 07:23:57;;;;;;;10.47;9.47;;;24.90;64.40;;;;;;5030758;28;20465;-68
2023/06/26 07:26:26;;;;;;;9.70;8.90;;;25.00;63.30;;;;;;5032222;28;20521;-69
2023/06/26 07:29:11;;;;;;;10.43;9.10;;;25.10;64.80;;;;;;5032107;28;20437;-71
2023/06/26 07:31:39;;;;;;;9.93;9.03;;;25.30;65.30;;;;;;5031946;28;20563;-70
2023/06/26 07:34:07;;;;;;;11.00;10.03;;;25.50;65.00;;;;;;5030303;28;20515;-71
2023/06/26 07:36:35;;;;;;;10.30;9.30;;;25.60;63.80;;;;;;5031841;28;20521;-69
2023/06/26 07:39:03;;;;;;;11.93;9.30;;;25.80;63.30;;;;;;5031768;28;20488;-69
2023/06/26 07:41:32;;;;;;;10.27;9.20;;;25.90;61.90;;;;;;5031815;28;20457;-69
2023/06/26 07:44:00;;;;;;;11.33;9.50;;;26.10;61.60;;;;;;5030289;28;21110;-69
2023/06/26 07:46:28;;;;;;;10.80;9.90;;;26.20;60.80;;;;;;5031427;28;20448;-69
2023/06/26 07:48:56;;;;;;;12.17;10.90;;;26.30;61.10;;;;;;5031554;28;20437;-69
2023/06/26 07:51:24;;;;;;;9.50;8.70;;;26.40;58.60;;;;;;5031581;28;20487;-69
2023/06/26 07:53:52;;;;;;;13.93;10.33;;;26.40;59.90;;;;;;5030183;28;20585;-70
2023/06/26 07:56:20;;;;;;;11.03;9.93;;;26.50;58.90;;;;;;5031380;28;20499;-70
2023/06/26 07:58:50;;;;;;;9.63;8.80;;;26.60;57.60;;;;;;5031380;28;20456;-69
2023/06/26 08:01:18;;;;;;;10.80;9.80;;;26.70;57.10;;;;;;5030836;28;20439;-69
2023/06/26 08:03:46;;;;;;;10.67;9.70;;;26.80;56.80;;;;;;5030062;28;20511;-69
2023/06/26 08:06:14;;;;;;;9.80;8.83;;;26.80;58.90;;;;;;5030121;28;20441;-69
2023/06/26 08:08:42;;;;;;;9.70;8.70;;;26.90;57.90;;;;;;5031069;28;20495;-69
2023/06/26 08:11:10;;;;;;;11.10;10.00;;;27.00;57.90;;;;;;5031336;28;21160;-69
2023/06/26 08:13:39;;;;;;;9.53;8.53;;;27.20;56.00;;;;;;5030006;28;20991;-70
2023/06/26 08:16:08;;;;;;;10.50;9.50;;;27.40;56.10;;;;;;5031061;28;20832;-70
2023/06/26 08:18:36;;;;;;;10.70;9.80;;;27.70;54.30;;;;;;5031126;28;20829;-70
2023/06/26 08:21:04;;;;;;;11.37;9.10;;;27.80;53.50;;;;;;5030602;28;20531;-69
2023/06/26 08:23:33;;;;;;;9.80;8.90;;;27.80;54.50;;;;;;5029494;28;20882;-70
2023/06/26 08:26:01;;;;;;;11.07;9.40;;;28.00;56.20;;;;;;5030496;28;20448;-70
2023/06/26 08:28:29;;;;;;;10.10;8.77;;;28.20;53.30;;;;;;5030710;28;20536;-70
2023/06/26 08:30:57;;;;;;;10.67;9.73;;;28.40;52.90;;;;;;5030483;28;20534;-70
2023/06/26 08:33:27;;;;;;;9.50;8.70;;;28.70;52.70;;;;;;5029109;28;20485;-70
2023/06/26 08:35:55;;;;;;;9.17;8.37;;;28.80;51.50;;;;;;5030350;28;20540;-70
2023/06/26 08:38:23;;;;;;;9.60;8.80;;;28.90;50.60;;;;;;5030195;28;20471;-70
2023/06/26 08:40:51;;;;;;;8.70;7.90;;;28.90;50.40;;;;;;5030273;28;20473;-71
2023/06/26 08:43:21;;;;;;;9.03;8.23;;;28.80;50.60;;;;;;5029119;28;20471;-68
2023/06/26 08:45:51;;;;;;;9.10;8.20;;;28.80;51.30;;;;;;5030425;28;20540;-69
2023/06/26 08:48:21;;;;;;;9.43;7.87;;;29.00;49.40;;;;;;5030145;28;20433;-69
2023/06/26 08:50:53;;;;;;;7.80;7.20;;;29.00;49.80;;;;;;5030196;28;20472;-69
2023/06/26 08:53:34;;;;;;;8.67;7.97;;;29.10;48.90;;;;;;5028665;28;20574;-69
2023/06/26 08:56:04;;;;;;;8.93;8.03;;;29.30;48.60;;;;;;5030238;28;20536;-69
2023/06/26 08:58:33;;;;;;;8.83;7.83;;;29.20;47.50;;;;;;5029877;28;20531;-69
2023/06/26 09:01:02;;;;;;;8.63;7.90;;;29.30;48.30;;;;;;5030233;28;20511;-69
2023/06/26 09:03:31;;;;;;;8.63;7.93;;;29.50;48.50;;;;;;5028620;28;20465;-70
2023/06/26 09:06:01;;;;;;;9.90;7.90;;;29.80;47.70;;;;;;5029738;28;20433;-68
2023/06/26 09:08:29;;;;;;;8.37;7.70;;;29.70;48.00;;;;;;5029964;28;21022;-69
2023/06/26 09:10:57;;;;;;;10.63;7.80;;;29.70;47.30;;;;;;5030151;28;20538;-70
2023/06/26 09:13:25;;;;;;;7.33;6.70;;;29.80;47.70;;;;;;5028645;28;21076;-71
2023/06/26 09:15:57;;;;;;;8.87;7.60;;;30.00;47.70;;;;;;5029789;28;20450;-70
2023/06/26 09:18:26;;;;;;;9.13;8.23;;;30.10;47.40;;;;;;5030087;28;20453;-70
2023/06/26 09:20:55;;;;;;;8.23;7.40;;;30.10;46.80;;;;;;5030020;28;20543;-70
2023/06/26 09:23:24;;;;;;;9.27;8.30;;;30.20;46.70;;;;;;5028830;28;20493;-71
2023/06/26 09:25:53;;;;;;;9.73;7.40;;;30.20;46.60;;;;;;5029994;28;20532;-70
2023/06/26 09:28:21;;;;;;;8.50;7.63;;;30.40;46.90;;;;;;5030006;28;21144;-70
2023/06/26 09:30:51;;;;;;;7.93;7.10;;;30.30;46.10;;;;;;5029803;28;20516;-70
2023/06/26 09:33:20;;;;;;;8.07;7.27;;;30.40;46.40;;;;;;5028869;28;20524;-70
2023/06/26 09:35:49;;;;;;;9.90;8.07;;;30.60;45.40;;;;;;5030043;28;21013;-70
2023/06/26 09:38:17;;;;;;;7.67;7.07;;;30.90;45.40;;;;;;5030094;28;21058;-70
2023/06/26 09:40:47;;;;;;;8.30;7.50;;;31.10;45.50;;;;;;5029806;28;20445;-71
2023/06/26 09:43:15;;;;;;;7.90;7.10;;;31.30;44.50;;;;;;5028494;28;21074;-70
2023/06/26 09:45:43;;;;;;;7.20;6.60;;;31.40;43.10;;;;;;5030383;28;20444;-70
2023/06/26 09:48:14;;;;;;;7.93;7.23;;;31.30;42.80;;;;;;5030139;28;20478;-70
2023/06/26 09:50:43;;;;;;;8.53;6.53;;;31.40;43.60;;;;;;5029958;28;20441;-71
2023/06/26 09:53:21;;;;;;;9.80;7.53;;;31.50;42.60;;;;;;5028222;28;20480;-70
2023/06/26 09:55:51;;;;;;;8.43;7.30;;;31.90;42.40;;;;;;5030181;28;20437;-70
2023/06/26 09:58:19;;;;;;;8.57;7.57;;;32.20;41.80;;;;;;5030124;28;20449;-70
2023/06/26 10:00:47;;;;;;;7.50;6.53;;;32.40;41.80;;;;;;5030150;28;20449;-69
2023/06/26 10:03:15;;;;;;;8.00;7.40;;;32.20;41.50;;;;;;5028823;28;20531;-70
2023/06/26 10:05:44;;;;;;;9.27;8.30;;;32.30;41.70;;;;;;5029781;28;20452;-69
2023/06/26 10:08:14;;;;;;;9.63;7.87;;;32.60;41.40;;;;;;5029618;28;21019;-70
2023/06/26 10:10:43;;;;;;;8.33;7.67;;;32.70;41.10;;;;;;5029760;28;20445;-69
2023/06/26 10:13:20;;;;;;;8.80;7.80;;;33.00;41.50;;;;;;5028061;28;20492;-71
2023/06/26 10:15:51;;;;;;;8.60;7.80;;;33.10;41.00;;;;;;5029323;28;20923;-70
2023/06/26 10:18:22;;;;;;;8.47;7.20;;;32.90;41.60;;;;;;5029128;28;20454;-69
2023/06/26 10:20:54;;;;;;;8.00;7.40;;;33.20;41.60;;;;;;5029326;28;20532;-70
2023/06/26 10:23:26;;;;;;;7.90;7.23;;;33.50;40.90;;;;;;5026008;28;20563;-70
2023/06/26 10:25:56;;;;;;;8.80;8.00;;;33.50;40.40;;;;;;5029216;28;20942;-69
2023/06/26 10:28:29;;;;;;;7.60;7.00;;;33.50;40.90;;;;;;5029269;28;20444;-70
2023/06/26 10:30:59;;;;;;;9.50;8.50;;;33.60;41.90;;;;;;5033192;28;20433;-70
2023/06/26 10:33:27;;;;;;;8.67;7.87;;;33.40;41.40;;;;;;5031644;28;20487;-70
2023/06/26 10:36:14;;;;;;;8.37;7.67;;;33.10;41.70;;;;;;5032962;28;20445;-69
2023/06/26 10:38:53;;;;;;;9.50;8.43;;;33.10;42.10;;;;;;5033095;28;20527;-69
2023/06/26 10:41:23;;;;;;;8.93;8.10;;;32.90;42.20;;;;;;5032972;28;20464;-69
2023/06/26 10:44:08;;;;;;;12.03;8.37;;;32.90;42.10;;;;;;5031197;28;20449;-69
2023/06/26 10:46:50;;;;;;;9.20;8.30;;;32.70;41.90;;;;;;5032926;28;20450;-70
2023/06/26 10:49:18;;;;;;;12.57;8.87;;;32.30;42.40;;;;;;5032624;28;21253;-69
2023/06/26 10:51:50;;;;;;;9.17;8.27;;;32.10;43.20;;;;;;5032498;28;20467;-69
2023/06/26 10:54:20;;;;;;;11.90;8.90;;;32.20;43.50;;;;;;5030727;28;20488;-69
2023/06/26 10:56:49;;;;;;;9.27;8.57;;;32.20;42.20;;;;;;5032576;28;20475;-70
2023/06/26 10:59:21;;;;;;;8.80;8.10;;;32.20;42.90;;;;;;5032624;28;20536;-69
2023/06/26 11:01:56;;;;;;;10.60;9.60;;;32.10;42.50;;;;;;5032480;28;20449;-69
2023/06/26 11:04:41;;;;;;;10.50;9.47;;;31.80;42.10;;;;;;5031519;28;20457;-69
2023/06/26 11:07:18;;;;;;;8.90;8.10;;;31.60;43.50;;;;;;5032595;28;20467;-69
2023/06/26 11:09:57;;;;;;;9.30;8.50;;;31.80;42.80;;;;;;5032417;28;20435;-71
2023/06/26 11:12:39;;;;;;;8.90;8.30;;;31.80;42.40;;;;;;5031026;28;20953;-69
2023/06/26 11:15:12;;;;;;;10.10;9.30;;;31.20;43.80;;;;;;5032077;28;20532;-69
2023/06/26 11:17:42;;;;;;;9.57;8.67;;;30.50;46.30;;;;;;5032584;28;20440;-68
2023/06/26 11:20:12;;;;;;;9.40;8.60;;;30.40;47.20;;;;;;5032412;28;20498;-70
2023/06/26 11:22:41;;;;;;;12.60;9.50;;;30.30;47.90;;;;;;5026261;28;20543;-69
2023/06/26 11:25:11;;;;;;;9.50;8.60;;;30.70;47.40;;;;;;5027179;28;20440;-70
2023/06/26 11:27:40;;;;;;;10.70;9.70;;;30.60;47.30;;;;;;5027489;28;20444;-69
2023/06/26 11:30:10;;;;;;;10.40;9.40;;;30.10;48.30;;;;;;5028222;28;20874;-69
2023/06/26 11:32:40;;;;;;;10.97;8.30;;;30.00;49.30;;;;;;5026415;28;20460;-70
2023/06/26 11:35:09;;;;;;;10.70;8.53;;;30.50;47.80;;;;;;5025909;28;20985;-70
2023/06/26 11:37:37;;;;;;;10.17;8.03;;;31.00;47.00;;;;;;5028216;28;20449;-69
2023/06/26 11:40:18;;;;;;;10.03;9.13;;;31.30;46.30;;;;;;5028299;28;20455;-69
2023/06/26 11:42:47;;;;;;;9.87;8.60;;;31.40;47.80;;;;;;5044834;28;21170;-71
2023/06/26 11:45:15;;;;;;;8.60;7.80;;;31.90;46.40;;;;;;5048285;28;20472;-71
2023/06/26 11:47:44;;;;;;;8.83;7.93;;;31.90;46.10;;;;;;5049034;28;20442;-70
2023/06/26 11:50:17;;;;;;;8.50;7.80;;;32.00;46.00;;;;;;5047575;28;20441;-70
2023/06/26 11:52:46;;;;;;;9.83;8.77;;;32.20;45.80;;;;;;5045647;28;20468;-71
2023/06/26 11:55:14;;;;;;;9.00;8.20;;;32.50;46.20;;;;;;5027603;28;20444;-71
2023/06/26 11:57:42;;;;;;;9.03;8.30;;;32.70;45.10;;;;;;5047117;28;20493;-70
2023/06/26 12:00:14;;;;;;;10.30;9.13;;;32.50;45.40;;;;;;5047663;28;20957;-70
2023/06/26 12:02:45;;;;;;;9.53;8.80;;;32.40;46.10;;;;;;5026527;28;20464;-70
2023/06/26 12:05:14;;;;;;;9.00;8.17;;;32.10;45.70;;;;;;5047181;28;20850;-69
2023/06/26 12:07:43;;;;;;;8.83;7.90;;;32.00;45.80;;;;;;5047729;28;20436;-70
2023/06/26 12:10:12;;;;;;;9.03;8.13;;;32.20;45.90;;;;;;5047272;28;20530;-71
2023/06/26 12:12:41;;;;;;;10.00;9.03;;;31.70;46.50;;;;;;5045838;28;20474;-70
2023/06/26 12:15:11;;;;;;;12.63;8.10;;;31.30;47.80;;;;;;5047003;28;21074;-70
2023/06/26 12:17:40;;;;;;;8.90;8.10;;;31.60;48.10;;;;;;5047237;28;20432;-70
2023/06/26 12:20:21;;;;;;;8.77;7.90;;;31.90;46.60;;;;;;5046718;28;20440;-71
2023/06/26 12:22:49;;;;;;;9.07;8.37;;;31.30;47.00;;;;;;5025999;28;20526;-70
2023/06/26 12:25:23;;;;;;;8.53;7.73;;;31.20;48.60;;;;;;5027205;28;20457;-70
2023/06/26 12:27:51;;;;;;;11.40;8.63;;;31.50;48.10;;;;;;5047155;28;20971;-70
2023/06/26 12:30:19;;;;;;;8.87;8.03;;;31.70;47.40;;;;;;5047249;28;20583;-70
2023/06/26 12:32:48;;;;;;;9.60;8.20;;;31.70;46.90;;;;;;5046152;28;20475;-70
2023/06/26 12:35:16;;;;;;;9.23;8.30;;;31.70;46.90;;;;;;5047236;28;20533;-70
2023/06/26 12:37:46;;;;;;;9.43;8.50;;;31.50;46.60;;;;;;5047246;28;20436;-71
2023/06/26 12:40:18;;;;;;;8.73;8.00;;;31.60;46.50;;;;;;5046456;28;20440;-71
2023/06/26 12:42:46;;;;;;;9.13;8.37;;;32.00;47.00;;;;;;5044922;28;20471;-70
2023/06/26 12:45:15;;;;;;;9.27;8.47;;;32.00;46.40;;;;;;5030415;28;20514;-70
2023/06/26 12:48:08;;;;;;;16.37;8.63;;;32.20;45.90;;;;;;5030292;28;20959;-69
2023/06/26 12:50:39;;;;;;;9.07;8.37;;;32.10;47.00;;;;;;5045924;28;20447;-71